Time;durP1;ratioP1;P1;durP2;ratioP2;P2;SDS_P1;SDS_P2;PMS_P1;PMS_P2;Temp;Humidity;BMP_temperature;BMP_pressure;BME280_temperature;BME280_humidity;BME280_pressure;Samples;Min_cycle;Max_cycle;Signal;HPM_P1;HPM_P2
2023/05/31 00:01:11;;;;;;;7.80;4.50;;;;;;;11.07;55.21;98480.42;106995;1277;24222;-76
2023/05/31 00:03:43;;;;;;;7.60;5.00;;;;;;;11.00;55.19;98478.89;107008;1277;22524;-76
2023/05/31 00:06:12;;;;;;;9.80;5.10;;;;;;;10.92;55.82;98481.23;106674;1277;22799;-76
2023/05/31 00:08:40;;;;;;;7.20;5.00;;;;;;;10.87;55.94;98485.77;106991;1277;24402;-76
2023/05/31 00:11:09;;;;;;;6.80;4.70;;;;;;;10.83;56.34;98481.93;107059;1277;26016;-75
2023/05/31 00:13:38;;;;;;;8.70;5.10;;;;;;;10.81;56.36;98480.93;106998;1277;24254;-76
2023/05/31 00:16:07;;;;;;;8.60;5.10;;;;;;;10.77;56.62;98483.62;106751;1277;22532;-76
2023/05/31 00:18:55;;;;;;;10.00;4.20;;;;;;;10.69;56.64;98481.81;106638;1277;22633;-76
2023/05/31 00:21:23;;;;;;;7.50;4.60;;;;;;;10.61;57.16;98480.86;107091;1277;25382;-76
2023/05/31 00:23:52;;;;;;;8.10;4.40;;;;;;;10.54;57.60;98480.22;106666;1277;24371;-76
2023/05/31 00:26:21;;;;;;;7.40;4.60;;;;;;;10.48;57.71;98479.37;106614;1277;22822;-76
2023/05/31 00:28:49;;;;;;;8.60;5.30;;;;;;;10.42;57.35;98479.31;106587;1277;22647;-76
2023/05/31 00:31:17;;;;;;;8.00;4.30;;;;;;;10.37;57.37;98479.30;106718;1277;25504;-76
2023/05/31 00:33:47;;;;;;;7.20;4.40;;;;;;;10.35;57.52;98484.60;106572;1277;22644;-76
2023/05/31 00:36:15;;;;;;;7.20;4.50;;;;;;;10.36;58.03;98483.46;106946;1277;24230;-75
2023/05/31 00:38:43;;;;;;;9.00;4.40;;;;;;;10.36;58.51;98477.33;106685;1275;22780;-75
2023/05/31 00:41:11;;;;;;;8.30;5.10;;;;;;;10.34;58.58;98475.72;106622;1277;23929;-76
2023/05/31 00:43:39;;;;;;;9.00;4.70;;;;;;;10.29;59.08;98473.34;106671;1277;23465;-75
2023/05/31 00:46:14;;;;;;;8.80;4.70;;;;;;;10.30;59.19;98476.45;106665;1276;22529;-75
2023/05/31 00:48:42;;;;;;;9.40;4.60;;;;;;;10.30;59.74;98481.09;106552;1277;22525;-77
2023/05/31 00:51:12;;;;;;;5.80;4.60;;;;;;;10.30;59.94;98482.65;106655;1277;22629;-77
2023/05/31 00:53:40;;;;;;;7.90;4.40;;;;;;;10.29;60.05;98480.83;106930;1277;22540;-77
2023/05/31 00:56:08;;;;;;;6.60;4.90;;;;;;;10.24;59.87;98481.37;106881;1277;24254;-76
2023/05/31 00:58:37;;;;;;;9.90;4.90;;;;;;;10.22;60.02;98483.88;106983;1277;22585;-76
2023/05/31 01:01:06;;;;;;;7.50;4.40;;;;;;;10.24;60.36;98489.23;106878;1277;24394;-76
2023/05/31 01:03:34;;;;;;;7.30;4.80;;;;;;;10.31;60.27;98487.66;106984;1277;22640;-76
2023/05/31 01:06:02;;;;;;;10.20;4.00;;;;;;;10.41;60.10;98487.34;106991;1277;24336;-77
2023/05/31 01:08:31;;;;;;;9.40;5.00;;;;;;;10.50;60.01;98491.15;106985;1277;22519;-77
2023/05/31 01:11:07;;;;;;;6.70;4.20;;;;;;;10.56;59.90;98490.82;107002;1277;23015;-77
2023/05/31 01:13:58;;;;;;;8.10;4.90;;;;;;;10.66;59.78;98489.71;106621;1277;22535;-77
2023/05/31 01:16:36;;;;;;;7.40;4.70;;;;;;;10.77;59.58;98488.04;106674;1277;24375;-77
2023/05/31 01:19:10;;;;;;;10.40;4.60;;;;;;;10.88;59.39;98485.55;107044;1277;22576;-76
2023/05/31 01:21:52;;;;;;;7.60;4.70;;;;;;;10.98;59.09;98487.77;107013;1277;22778;-77
2023/05/31 01:24:41;;;;;;;6.30;4.30;;;;;;;11.04;58.98;98486.83;106970;1277;25268;-77
2023/05/31 01:27:09;;;;;;;7.10;4.40;;;;;;;11.11;58.68;98489.23;106997;1277;22709;-77
2023/05/31 01:29:39;;;;;;;7.80;4.40;;;;;;;11.16;58.79;98490.67;107008;1277;22594;-79
2023/05/31 01:32:08;;;;;;;8.00;4.50;;;;;;;11.21;58.58;98490.79;107139;1277;25492;-77
2023/05/31 01:34:44;;;;;;;9.30;4.50;;;;;;;11.26;58.43;98492.34;107130;1277;22655;-76
2023/05/31 01:37:12;;;;;;;8.20;4.60;;;;;;;11.29;58.35;98490.85;107201;1277;22628;-76
2023/05/31 01:39:41;;;;;;;7.60;4.50;;;;;;;11.30;58.23;98490.30;106903;1277;22529;-76
2023/05/31 01:42:11;;;;;;;7.10;4.50;;;;;;;11.29;58.02;98487.01;107168;1277;22699;-76
2023/05/31 01:44:40;;;;;;;6.40;4.60;;;;;;;11.27;57.84;98488.55;107192;1277;22602;-76
2023/05/31 01:47:09;;;;;;;6.80;4.80;;;;;;;11.22;57.93;98488.51;107152;1277;22564;-79
2023/05/31 01:49:38;;;;;;;8.30;4.50;;;;;;;11.15;57.75;98485.08;107185;1277;22531;-76
2023/05/31 01:52:10;;;;;;;8.70;4.80;;;;;;;11.07;57.84;98485.51;106801;1277;25207;-76
2023/05/31 01:54:38;;;;;;;12.60;5.40;;;;;;;10.97;57.78;98485.94;106737;1277;22576;-76
2023/05/31 01:57:08;;;;;;;10.50;5.60;;;;;;;10.86;57.86;98490.86;107021;1277;24247;-76
2023/05/31 01:59:40;;;;;;;9.50;5.10;;;;;;;10.75;57.84;98488.11;106957;1277;22617;-75
2023/05/31 02:02:09;;;;;;;7.00;4.70;;;;;;;10.66;57.98;98493.22;106548;1277;25245;-76
2023/05/31 02:04:37;;;;;;;6.90;4.60;;;;;;;10.59;57.84;98493.02;106828;1277;22684;-76
2023/05/31 02:07:05;;;;;;;9.80;5.10;;;;;;;10.51;58.34;98493.56;106969;1277;25430;-76
2023/05/31 02:09:33;;;;;;;9.60;5.60;;;;;;;10.42;58.27;98490.35;107005;1277;25495;-77
2023/05/31 02:12:05;;;;;;;13.30;6.70;;;;;;;10.29;58.00;98492.98;106652;1278;22575;-76
2023/05/31 02:14:33;;;;;;;9.40;6.40;;;;;;;10.11;58.30;98490.79;106868;1277;22779;-76
2023/05/31 02:17:01;;;;;;;9.70;6.10;;;;;;;9.96;58.50;98493.33;106874;1277;24199;-76
2023/05/31 02:19:29;;;;;;;8.80;5.90;;;;;;;9.87;58.71;98491.13;106870;1277;22693;-77
2023/05/31 02:21:57;;;;;;;12.70;6.20;;;;;;;9.79;59.03;98493.59;106666;1277;22635;-77
2023/05/31 02:24:27;;;;;;;8.50;6.10;;;;;;;9.73;59.38;98491.20;106649;1277;24189;-76
2023/05/31 02:26:55;;;;;;;9.00;6.00;;;;;;;9.68;59.35;98487.52;107101;1277;22558;-76
2023/05/31 02:29:25;;;;;;;8.40;5.70;;;;;;;9.64;59.32;98488.30;106960;1264;22658;-76
2023/05/31 02:31:54;;;;;;;9.30;4.70;;;;;;;9.61;59.74;98488.91;106902;1278;22557;-76
2023/05/31 02:34:22;;;;;;;7.00;5.50;;;;;;;9.54;59.64;98489.27;106883;1277;25416;-77
2023/05/31 02:36:50;;;;;;;9.20;5.80;;;;;;;9.50;59.95;98488.86;107151;1277;22534;-76
2023/05/31 02:39:18;;;;;;;10.70;6.20;;;;;;;9.48;59.62;98491.61;106609;1277;22575;-76
2023/05/31 02:41:46;;;;;;;13.10;5.30;;;;;;;9.51;59.86;98486.55;106735;1277;23910;-76
2023/05/31 02:44:14;;;;;;;14.00;5.70;;;;;;;9.58;60.70;98485.86;106673;1277;22668;-76
2023/05/31 02:46:43;;;;;;;6.70;4.50;;;;;;;9.62;61.54;98488.86;106638;1277;23330;-76
2023/05/31 02:49:12;;;;;;;10.50;5.40;;;;;;;9.64;61.64;98489.91;106823;1277;22545;-76
2023/05/31 02:51:40;;;;;;;8.00;5.00;;;;;;;9.63;61.75;98487.55;106898;1278;23934;-76
2023/05/31 02:54:34;;;;;;;12.50;5.80;;;;;;;9.56;61.87;98494.20;106842;1277;23271;-76
2023/05/31 02:57:03;;;;;;;10.80;7.10;;;;;;;9.48;61.49;98493.13;106903;1277;25326;-76
2023/05/31 02:59:36;;;;;;;11.60;6.70;;;;;;;9.40;61.33;98496.54;107018;1277;22524;-75
2023/05/31 03:02:08;;;;;;;8.20;6.00;;;;;;;9.34;61.18;98497.97;106650;1277;25484;-76
2023/05/31 03:04:51;;;;;;;9.50;5.80;;;;;;;9.31;61.59;98502.02;106970;1277;25217;-76
2023/05/31 03:07:22;;;;;;;11.40;6.60;;;;;;;9.30;61.76;98503.42;106576;1277;22592;-76
2023/05/31 03:09:50;;;;;;;11.20;6.80;;;;;;;9.26;61.54;98504.67;106920;1277;22544;-76
2023/05/31 03:12:18;;;;;;;11.60;7.20;;;;;;;9.17;62.69;98509.05;106497;1277;23899;-75
2023/05/31 03:14:47;;;;;;;8.70;5.90;;;;;;;9.11;64.01;98511.50;106536;1277;25316;-76
2023/05/31 03:17:16;;;;;;;8.00;6.50;;;;;;;9.07;64.19;98512.81;106574;1278;22652;-76
2023/05/31 03:19:44;;;;;;;10.50;7.10;;;;;;;9.03;64.07;98516.11;106687;1277;22528;-76
2023/05/31 03:22:12;;;;;;;9.70;7.00;;;;;;;8.98;63.88;98522.13;106616;1277;24416;-76
2023/05/31 03:24:42;;;;;;;8.90;5.30;;;;;;;8.99;63.81;98522.77;106617;1277;26073;-76
2023/05/31 03:27:10;;;;;;;10.10;5.30;;;;;;;8.99;65.67;98522.98;107039;1277;25460;-76
2023/05/31 03:29:41;;;;;;;7.50;5.10;;;;;;;8.89;67.47;98527.58;106895;1277;24301;-76
2023/05/31 03:32:09;;;;;;;8.80;5.30;;;;;;;8.82;67.68;98528.84;106982;1277;25449;-76
2023/05/31 03:34:38;;;;;;;12.10;5.60;;;;;;;8.83;68.77;98525.71;106728;1277;22643;-77
2023/05/31 03:37:06;;;;;;;10.00;6.80;;;;;;;8.83;68.14;98529.73;106853;1277;24173;-76
2023/05/31 03:39:40;;;;;;;8.40;5.70;;;;;;;8.85;67.29;98528.18;106536;1277;25498;-76
2023/05/31 03:42:10;;;;;;;9.50;5.80;;;;;;;8.83;66.58;98533.83;106669;1277;25230;-75
2023/05/31 03:44:39;;;;;;;9.70;5.90;;;;;;;8.83;66.22;98535.86;106595;1277;22523;-76
2023/05/31 03:47:07;;;;;;;11.60;7.10;;;;;;;8.88;66.42;98542.63;106793;1277;22644;-76
2023/05/31 03:49:36;;;;;;;8.00;5.40;;;;;;;8.96;66.31;98545.53;106865;1278;22732;-76
2023/05/31 03:52:04;;;;;;;10.50;5.10;;;;;;;9.05;66.29;98540.39;106558;1277;22537;-76
2023/05/31 03:54:33;;;;;;;9.00;5.80;;;;;;;9.25;66.44;98538.66;106655;1277;22472;-76
2023/05/31 03:57:01;;;;;;;9.40;5.30;;;;;;;9.40;66.04;98537.20;106572;1277;22534;-76
2023/05/31 03:59:29;;;;;;;7.10;5.00;;;;;;;9.50;66.20;98533.73;106644;1277;25316;-76
2023/05/31 04:01:57;;;;;;;9.80;5.60;;;;;;;9.63;67.06;98533.61;106571;1277;25304;-76
2023/05/31 04:04:26;;;;;;;10.10;5.90;;;;;;;9.68;66.72;98533.97;106667;1277;22633;-77
2023/05/31 04:06:54;;;;;;;9.50;5.70;;;;;;;9.74;66.48;98531.36;106562;1277;22604;-77
2023/05/31 04:09:25;;;;;;;6.80;5.00;;;;;;;9.84;66.40;98524.95;106829;1277;22623;-76
2023/05/31 04:11:57;;;;;;;9.00;5.60;;;;;;;9.95;66.55;98525.58;107129;1277;22545;-77
2023/05/31 04:14:25;;;;;;;12.10;5.60;;;;;;;10.06;66.65;98523.52;107120;1277;24216;-76
2023/05/31 04:16:55;;;;;;;9.10;5.60;;;;;;;10.17;66.40;98525.39;107140;1277;22917;-78
2023/05/31 04:19:22;;;;;;;6.70;5.10;;;;;;;10.28;66.41;98527.27;106904;1277;22534;-80
2023/05/31 04:21:51;;;;;;;9.00;5.50;;;;;;;10.38;66.38;98525.19;106772;1278;22528;-81
2023/05/31 04:24:19;;;;;;;13.10;7.00;;;;;;;10.48;66.18;98524.69;106688;1277;22546;-80
2023/05/31 04:26:48;;;;;;;12.30;7.80;;;;;;;10.59;66.18;98527.45;106643;1277;22563;-80
2023/05/31 04:29:17;;;;;;;15.00;9.50;;;;;;;10.70;66.21;98523.52;106532;1277;22533;-80
2023/05/31 04:31:46;;;;;;;14.80;9.30;;;;;;;10.81;66.07;98527.95;106760;1277;22673;-81
2023/05/31 04:34:21;;;;;;;14.70;8.40;;;;;;;10.92;65.96;98524.38;106624;1277;22535;-78
2023/05/31 04:36:51;;;;;;;12.50;7.70;;;;;;;11.03;66.04;98525.94;106602;1277;22528;-77
2023/05/31 04:39:22;;;;;;;10.80;6.80;;;;;;;11.15;66.05;98524.24;106621;1278;22531;-78
2023/05/31 04:41:52;;;;;;;10.10;6.60;;;;;;;11.26;65.88;98524.13;107208;1277;25230;-79
2023/05/31 04:44:20;;;;;;;18.70;7.20;;;;;;;11.38;65.78;98526.41;107126;1277;22762;-77
2023/05/31 04:46:50;;;;;;;9.80;6.20;;;;;;;11.50;65.65;98526.96;107164;1277;22670;-80
2023/05/31 04:49:19;;;;;;;19.80;5.90;;;;;;;11.61;65.64;98528.02;106546;1277;25507;-81
2023/05/31 04:51:48;;;;;;;11.20;6.90;;;;;;;11.74;65.54;98530.71;106641;1278;23247;-80
2023/05/31 04:54:17;;;;;;;17.20;8.60;;;;;;;11.87;65.38;98534.06;106703;1278;22534;-80
2023/05/31 04:56:45;;;;;;;11.00;6.50;;;;;;;12.01;65.46;98536.20;107024;1278;22547;-81
2023/05/31 04:59:13;;;;;;;13.10;7.00;;;;;;;12.15;65.40;98536.91;106683;1277;22654;-80
2023/05/31 05:01:42;;;;;;;28.10;9.00;;;;;;;12.31;65.29;98546.13;106550;1277;22544;-82
2023/05/31 05:04:14;;;;;;;16.40;8.70;;;;;;;12.46;65.22;98543.02;106669;1277;22578;-81
2023/05/31 05:06:43;;;;;;;26.20;14.20;;;;;;;12.60;65.12;98542.42;107032;1277;22573;-79
2023/05/31 05:09:11;;;;;;;17.30;8.70;;;;;;;12.74;65.26;98542.73;106967;1277;22527;-77
2023/05/31 05:11:39;;;;;;;12.10;8.20;;;;;;;12.87;65.28;98541.63;107101;1277;25274;-76
2023/05/31 05:14:08;;;;;;;12.10;6.00;;;;;;;13.00;65.13;98543.23;107105;1278;22622;-76
2023/05/31 05:16:36;;;;;;;12.40;6.50;;;;;;;13.15;65.03;98541.45;106975;1277;25378;-77
2023/05/31 05:19:05;;;;;;;12.80;8.00;;;;;;;13.32;65.35;98540.92;106987;1278;25359;-77
2023/05/31 05:21:34;;;;;;;11.20;6.40;;;;;;;13.53;65.18;98538.66;107089;1277;22661;-77
2023/05/31 05:24:02;;;;;;;8.40;5.30;;;;;;;13.79;65.14;98538.89;106869;1277;22511;-77
2023/05/31 05:26:30;;;;;;;13.90;8.70;;;;;;;14.07;64.82;98537.56;106890;1277;25523;-78
2023/05/31 05:28:58;;;;;;;10.20;6.50;;;;;;;14.30;64.55;98542.57;107013;1277;22700;-78
2023/05/31 05:31:27;;;;;;;12.80;5.30;;;;;;;14.53;64.18;98537.59;107061;1277;22688;-78
2023/05/31 05:33:56;;;;;;;10.30;5.70;;;;;;;14.75;64.06;98540.96;106992;1277;22729;-78
2023/05/31 05:36:25;;;;;;;11.60;6.30;;;;;;;14.95;63.81;98537.02;107076;1277;22523;-77
2023/05/31 05:38:58;;;;;;;8.90;4.60;;;;;;;15.17;63.11;98536.96;107097;1277;22559;-76
2023/05/31 05:41:26;;;;;;;15.30;4.40;;;;;;;15.35;62.82;98538.06;107184;1273;24231;-77
2023/05/31 05:43:55;;;;;;;10.70;5.00;;;;;;;15.55;62.01;98539.02;106840;1277;22532;-76
2023/05/31 05:46:23;;;;;;;7.70;4.50;;;;;;;15.77;61.91;98536.34;106729;1277;25417;-76
2023/05/31 05:48:51;;;;;;;11.50;4.80;;;;;;;15.96;61.53;98539.79;106666;1277;22528;-75
2023/05/31 05:51:22;;;;;;;13.50;4.70;;;;;;;16.13;60.97;98542.77;106788;1277;111915;-76
2023/05/31 05:53:50;;;;;;;12.00;4.50;;;;;;;16.21;59.60;98543.13;106752;1277;24192;-76
2023/05/31 05:56:18;;;;;;;8.60;4.50;;;;;;;16.24;59.35;98541.50;106590;1277;24375;-77
2023/05/31 05:58:56;;;;;;;10.50;4.70;;;;;;;16.32;59.11;98547.23;106855;1277;22521;-76
2023/05/31 06:01:53;;;;;;;9.70;5.60;;;;;;;16.41;59.22;98545.76;106747;1277;22523;-76
2023/05/31 06:04:22;;;;;;;9.00;4.70;;;;;;;16.52;58.53;98546.63;106828;1278;22580;-78
2023/05/31 06:06:51;;;;;;;9.90;4.60;;;;;;;16.63;57.66;98545.85;107039;1277;22534;-78
2023/05/31 06:09:19;;;;;;;12.60;4.60;;;;;;;16.71;57.07;98544.42;106876;1277;22527;-77
2023/05/31 06:11:47;;;;;;;11.00;4.80;;;;;;;16.82;57.14;98547.71;107009;1277;22586;-78
2023/05/31 06:14:15;;;;;;;13.50;5.20;;;;;;;16.90;56.36;98547.15;107076;1277;25100;-79
2023/05/31 06:16:46;;;;;;;10.00;4.20;;;;;;;16.95;55.54;98545.94;107033;1278;23899;-77
2023/05/31 06:19:14;;;;;;;10.40;4.90;;;;;;;17.05;55.66;98548.83;107570;1257;22548;-76
2023/05/31 06:21:43;;;;;;;12.20;4.30;;;;;;;17.16;55.31;98548.45;107117;1278;22552;-77
2023/05/31 06:24:11;;;;;;;12.10;4.60;;;;;;;17.30;55.50;98551.79;107011;1276;22647;-76
2023/05/31 06:26:39;;;;;;;11.60;5.40;;;;;;;17.38;54.73;98551.80;106565;1278;23016;-77
2023/05/31 06:29:08;;;;;;;13.60;5.30;;;;;;;17.44;54.48;98546.36;106751;1278;23859;-76
2023/05/31 06:31:58;;;;;;;10.90;5.10;;;;;;;17.50;54.08;98547.81;106644;1278;22527;-77
2023/05/31 06:34:30;;;;;;;9.70;4.70;;;;;;;17.59;53.66;98546.97;106769;1278;25264;-77
2023/05/31 06:37:01;;;;;;;9.50;5.50;;;;;;;17.64;53.32;98547.33;107308;1278;24364;-77
2023/05/31 06:39:30;;;;;;;12.20;5.60;;;;;;;17.73;53.16;98546.44;107146;1278;22531;-77
2023/05/31 06:42:01;;;;;;;13.30;5.40;;;;;;;17.85;52.62;98549.19;106972;1277;22684;-77
2023/05/31 06:44:58;;;;;;;16.00;5.00;;;;;;;17.95;53.29;98547.30;106704;1278;25504;-77
2023/05/31 06:47:49;;;;;;;13.50;5.30;;;;;;;18.03;52.67;98550.95;106956;1278;22572;-77
2023/05/31 06:50:36;;;;;;;12.40;5.10;;;;;;;18.13;52.58;98548.76;107032;1278;22530;-77
2023/05/31 06:53:23;;;;;;;9.40;4.70;;;;;;;18.20;52.35;98548.27;106627;1278;24361;-77
2023/05/31 06:55:59;;;;;;;13.80;5.20;;;;;;;18.22;51.27;98551.13;107019;1278;22625;-77
2023/05/31 06:58:33;;;;;;;6.60;3.70;;;;;;;18.23;51.44;98546.50;106957;1260;22907;-77
2023/05/31 07:01:01;;;;;;;8.30;4.10;;;;;;;18.31;51.01;98545.15;106966;1278;24298;-78
2023/05/31 07:03:29;;;;;;;8.80;4.30;;;;;;;18.40;50.96;98542.84;106992;1278;24239;-77
2023/05/31 07:05:58;;;;;;;17.80;4.70;;;;;;;18.47;50.24;98543.79;107030;1278;24250;-77
2023/05/31 07:08:26;;;;;;;11.50;4.20;;;;;;;18.57;50.14;98547.77;106975;1277;25230;-76
2023/05/31 07:11:15;;;;;;;6.70;3.90;;;;;;;18.71;50.14;98548.86;107093;1278;22677;-76
2023/05/31 07:13:43;;;;;;;8.80;4.00;;;;;;;18.79;49.36;98551.86;107010;1278;23951;-76
2023/05/31 07:16:11;;;;;;;12.90;4.10;;;;;;;18.87;49.71;98549.42;106953;1269;24298;-77
2023/05/31 07:18:39;;;;;;;9.20;3.80;;;;;;;19.01;48.78;98549.20;106905;1278;22528;-76
2023/05/31 07:21:08;;;;;;;8.80;3.90;;;;;;;19.08;48.26;98548.27;106993;1273;25315;-77
2023/05/31 07:23:36;;;;;;;12.80;4.40;;;;;;;19.13;48.41;98549.73;106954;1279;25343;-76
2023/05/31 07:26:04;;;;;;;12.60;4.10;;;;;;;19.20;47.64;98546.73;106820;1278;22544;-77
2023/05/31 07:28:32;;;;;;;20.40;4.50;;;;;;;19.33;48.14;98549.08;106973;1279;22539;-77
2023/05/31 07:31:01;;;;;;;7.80;3.80;;;;;;;19.42;47.08;98545.65;107026;1270;25375;-77
2023/05/31 07:33:30;;;;;;;9.30;3.60;;;;;;;19.47;46.53;98545.33;106989;1279;22661;-77
2023/05/31 07:36:00;;;;;;;17.70;3.60;;;;;;;19.55;46.62;98543.30;107006;1278;22637;-77
2023/05/31 07:38:28;;;;;;;8.10;3.10;;;;;;;19.61;46.04;98538.25;106909;1279;22527;-77
2023/05/31 07:40:56;;;;;;;9.90;3.50;;;;;;;19.71;44.74;98538.98;106593;1279;22539;-76
2023/05/31 07:43:25;;;;;;;7.60;3.10;;;;;;;19.75;43.61;98536.40;106560;1279;22543;-77
2023/05/31 07:45:56;;;;;;;7.00;2.90;;;;;;;19.81;43.63;98536.27;106528;1273;24882;-77
2023/05/31 07:48:25;;;;;;;7.90;3.20;;;;;;;19.99;43.95;98531.86;106632;1278;25453;-77
2023/05/31 07:50:53;;;;;;;9.60;3.10;;;;;;;20.14;43.83;98530.75;106791;1278;25374;-77
2023/05/31 07:53:21;;;;;;;5.00;2.80;;;;;;;20.29;43.34;98529.92;106731;1278;25287;-77
2023/05/31 07:55:49;;;;;;;10.10;3.10;;;;;;;20.51;43.86;98526.27;106639;1277;22531;-77
2023/05/31 07:58:17;;;;;;;5.20;2.70;;;;;;;20.68;43.74;98520.00;106711;1277;22552;-77
2023/05/31 08:00:45;;;;;;;6.80;2.70;;;;;;;20.73;42.64;98521.72;106717;1277;25375;-77
2023/05/31 08:03:14;;;;;;;7.80;2.90;;;;;;;20.74;42.14;98520.41;106767;1277;22600;-77
2023/05/31 08:05:43;;;;;;;7.10;2.90;;;;;;;20.77;41.40;98523.55;106914;1277;22530;-77
2023/05/31 08:08:12;;;;;;;9.90;3.10;;;;;;;20.78;41.94;98519.41;106874;1277;22531;-77
2023/05/31 08:10:40;;;;;;;10.70;3.70;;;;;;;20.87;41.92;98519.89;106671;1277;25326;-76
2023/05/31 08:13:09;;;;;;;6.00;3.20;;;;;;;20.97;41.99;98517.39;106639;1277;25324;-77
2023/05/31 08:15:37;;;;;;;6.50;3.00;;;;;;;21.09;41.71;98516.98;106670;1278;23280;-77
2023/05/31 08:18:05;;;;;;;5.60;3.00;;;;;;;21.24;42.27;98511.25;106717;1278;25471;-77
2023/05/31 08:20:34;;;;;;;6.80;2.60;;;;;;;21.37;41.82;98512.13;106695;1266;22637;-76
2023/05/31 08:23:02;;;;;;;9.10;3.30;;;;;;;21.42;40.96;98510.54;106701;1278;22597;-76
2023/05/31 08:25:30;;;;;;;9.60;3.50;;;;;;;21.42;41.01;98515.17;106714;1278;22517;-76
2023/05/31 08:27:58;;;;;;;7.10;3.20;;;;;;;21.47;40.04;98508.94;106612;1278;25234;-77
2023/05/31 08:30:26;;;;;;;9.70;3.10;;;;;;;21.47;40.31;98507.37;106605;1278;25501;-77
2023/05/31 08:32:54;;;;;;;9.30;4.90;;;;;;;21.55;40.35;98509.90;106559;1278;22538;-77
2023/05/31 08:35:22;;;;;;;6.90;3.20;;;;;;;21.68;40.99;98509.27;106614;1278;25397;-77
2023/05/31 08:37:50;;;;;;;5.20;3.20;;;;;;;21.83;40.35;98510.78;106839;1277;24447;-77
2023/05/31 08:40:18;;;;;;;6.80;3.10;;;;;;;21.82;40.39;98510.36;106802;1277;24276;-77
2023/05/31 08:42:55;;;;;;;6.90;3.60;;;;;;;21.86;40.05;98512.00;106834;1277;24520;-77
2023/05/31 08:45:28;;;;;;;9.90;3.40;;;;;;;21.94;40.47;98510.87;106854;1277;25406;-77
2023/05/31 08:48:09;;;;;;;8.20;3.20;;;;;;;22.10;39.94;98512.15;106906;1276;24322;-76
2023/05/31 08:50:39;;;;;;;8.40;3.20;;;;;;;22.17;39.91;98506.11;106795;1277;24202;-76
2023/05/31 08:53:08;;;;;;;9.40;3.30;;;;;;;22.25;39.78;98507.85;107332;1277;22546;-75
2023/05/31 08:55:38;;;;;;;9.10;3.30;;;;;;;22.20;38.77;98510.81;107353;1277;22630;-76
2023/05/31 08:58:06;;;;;;;9.40;3.20;;;;;;;22.09;39.17;98514.63;107042;1278;25524;-76
2023/05/31 09:00:35;;;;;;;4.10;2.80;;;;;;;22.01;39.13;98509.52;106583;1278;22539;-75
2023/05/31 09:03:06;;;;;;;8.80;2.70;;;;;;;22.01;38.89;98505.59;106720;1277;22637;-75
2023/05/31 09:05:34;;;;;;;5.00;2.80;;;;;;;21.89;38.94;98508.63;106776;1277;24243;-76
2023/05/31 09:08:03;;;;;;;245.70;16.70;;;;;;;21.88;38.66;98511.29;106777;1277;25274;-76
2023/05/31 09:10:31;;;;;;;8.60;3.30;;;;;;;22.01;38.89;98509.13;106711;1277;24238;-76
2023/05/31 09:12:59;;;;;;;7.80;3.80;;;;;;;22.16;37.28;98511.83;106685;1277;23596;-76
2023/05/31 09:15:27;;;;;;;5.70;2.80;;;;;;;22.19;37.53;98512.98;106642;1256;22992;-76
2023/05/31 09:17:57;;;;;;;6.20;3.50;;;;;;;22.39;37.53;98511.04;106733;1266;24371;-78
2023/05/31 09:20:34;;;;;;;10.90;2.80;;;;;;;22.49;36.66;98509.89;106696;1277;23331;-78
2023/05/31 09:23:06;;;;;;;9.20;2.80;;;;;;;22.56;36.95;98509.25;107183;1277;22521;-78
2023/05/31 09:25:46;;;;;;;5.90;2.80;;;;;;;22.67;37.04;98508.74;107133;1277;22531;-78
2023/05/31 09:28:17;;;;;;;6.20;3.00;;;;;;;22.74;36.83;98511.78;107173;1270;22537;-78
2023/05/31 09:30:45;;;;;;;5.70;3.50;;;;;;;22.69;36.94;98512.46;107168;1277;22592;-78
2023/05/31 09:33:14;;;;;;;8.40;2.90;;;;;;;22.60;36.65;98506.89;107272;1277;22654;-79
2023/05/31 09:35:56;;;;;;;6.60;3.10;;;;;;;22.58;36.76;98501.98;107135;1277;22613;-77
2023/05/31 09:38:34;;;;;;;7.60;2.80;;;;;;;22.79;36.91;98506.21;107088;1278;22824;-77
2023/05/31 09:41:19;;;;;;;12.20;3.40;;;;;;;23.00;36.83;98506.85;106631;1270;24637;-77
2023/05/31 09:43:50;;;;;;;7.90;2.80;;;;;;;23.19;36.57;98499.63;106754;1266;22557;-77
2023/05/31 09:46:22;;;;;;;5.10;2.60;;;;;;;23.18;35.56;98495.05;106744;1277;24524;-78
2023/05/31 09:49:05;;;;;;;11.20;3.00;;;;;;;23.13;36.20;98496.70;106627;1278;24337;-77
2023/05/31 09:51:34;;;;;;;6.40;3.30;;;;;;;23.36;36.52;98499.04;107218;1278;22539;-78
2023/05/31 09:54:14;;;;;;;7.90;3.00;;;;;;;23.53;36.31;98500.95;107040;1278;22638;-77
2023/05/31 09:56:43;;;;;;;8.90;3.80;;;;;;;23.65;35.63;98496.41;106968;1278;22541;-78
2023/05/31 09:59:11;;;;;;;7.10;3.30;;;;;;;23.77;35.81;98496.52;107080;1278;22528;-77
2023/05/31 10:01:39;;;;;;;8.00;2.90;;;;;;;23.89;35.72;98487.58;107003;1278;22617;-78
2023/05/31 10:04:07;;;;;;;6.70;3.10;;;;;;;23.97;35.15;98486.42;107112;1278;22538;-78
2023/05/31 10:06:36;;;;;;;6.30;2.90;;;;;;;23.99;34.86;98486.76;107085;1278;22556;-77
2023/05/31 10:09:07;;;;;;;5.80;2.70;;;;;;;24.03;35.57;98482.10;107024;1278;22557;-78
2023/05/31 10:11:37;;;;;;;9.20;3.30;;;;;;;24.22;35.70;98478.55;107127;1278;23152;-78
2023/05/31 10:14:15;;;;;;;8.70;2.70;;;;;;;24.32;34.89;98472.52;107045;1267;22603;-77
2023/05/31 10:16:48;;;;;;;5.60;2.70;;;;;;;24.38;34.70;98467.25;107085;1273;22530;-77
2023/05/31 10:19:31;;;;;;;8.00;2.80;;;;;;;24.52;34.83;98467.19;107327;1277;22642;-79
2023/05/31 10:22:03;;;;;;;5.80;2.50;;;;;;;24.60;35.07;98464.13;107245;1273;22686;-78
2023/05/31 10:24:40;;;;;;;10.00;2.90;;;;;;;24.74;34.84;98464.34;107387;1277;22612;-77
2023/05/31 10:27:16;;;;;;;6.20;2.60;;;;;;;24.80;34.78;98462.74;107232;1277;22535;-77
2023/05/31 10:29:51;;;;;;;5.70;2.70;;;;;;;24.84;34.21;98466.31;107105;1264;22644;-77
2023/05/31 10:32:22;;;;;;;7.30;3.00;;;;;;;24.74;34.19;98461.27;107187;1269;22547;-79
2023/05/31 10:34:51;;;;;;;6.00;2.80;;;;;;;24.69;34.41;98460.45;107115;1277;22565;-79
2023/05/31 10:37:21;;;;;;;4.00;2.20;;;;;;;24.71;33.04;98449.12;107128;1277;22602;-79
2023/05/31 10:40:15;;;;;;;9.30;2.80;;;;;;;24.66;33.72;98452.21;107060;1277;25462;-79
2023/05/31 10:42:56;;;;;;;7.60;2.60;;;;;;;24.72;33.56;98447.78;107235;1277;22642;-79
2023/05/31 10:45:30;;;;;;;6.10;2.40;;;;;;;24.72;33.56;98447.71;107225;1277;22583;-78
2023/05/31 10:48:17;;;;;;;;;;;;;;;24.79;33.48;98451.23;107135;1277;26493;-77
2023/05/31 10:50:56;;;;;;;6.20;2.60;;;;;;;25.00;33.73;98448.27;107187;1277;24060;-77
2023/05/31 10:53:29;;;;;;;6.90;2.80;;;;;;;25.07;33.39;98438.86;107314;1273;24197;-77
2023/05/31 10:56:09;;;;;;;7.60;2.60;;;;;;;25.11;33.28;98440.01;107203;1277;25328;-77
2023/05/31 10:58:42;;;;;;;5.40;2.70;;;;;;;25.16;33.39;98439.67;107107;1277;23159;-78
2023/05/31 11:01:13;;;;;;;10.70;2.80;;;;;;;25.28;33.35;98441.42;107120;1277;24092;-78
2023/05/31 11:03:46;;;;;;;5.60;2.30;;;;;;;25.40;33.41;98438.81;107292;1277;22528;-77
2023/05/31 11:06:19;;;;;;;5.50;2.60;;;;;;;25.48;32.88;98443.13;107287;1277;25322;-78
2023/05/31 11:09:04;;;;;;;7.40;3.00;;;;;;;25.57;32.98;98442.79;107175;1277;26507;-78
2023/05/31 11:11:32;;;;;;;5.30;2.70;;;;;;;25.62;32.13;98437.69;107208;1277;23279;-77
2023/05/31 11:14:07;;;;;;;5.20;2.50;;;;;;;25.43;32.67;98433.16;107083;1278;24228;-77
2023/05/31 11:16:47;;;;;;;7.80;2.70;;;;;;;25.50;32.79;98430.60;107078;1278;22550;-78
2023/05/31 11:19:17;;;;;;;4.80;2.40;;;;;;;25.45;31.42;98429.23;107184;1277;22797;-77
2023/05/31 11:21:55;;;;;;;6.70;2.60;;;;;;;25.03;30.91;98426.87;107216;1262;25530;-78
2023/05/31 11:24:42;;;;;;;8.00;2.70;;;;;;;24.56;32.03;98421.17;107330;1277;22519;-78
2023/05/31 11:27:13;;;;;;;9.20;3.00;;;;;;;24.32;31.80;98422.96;107210;1270;22778;-78
2023/05/31 11:29:44;;;;;;;7.20;2.70;;;;;;;24.33;32.07;98414.31;106743;1256;24292;-78
2023/05/31 11:32:20;;;;;;;8.30;2.90;;;;;;;24.30;31.93;98411.45;106799;1277;22646;-78
2023/05/31 11:34:49;;;;;;;4.80;2.50;;;;;;;24.44;32.24;98407.21;106726;1255;24331;-78
2023/05/31 11:37:17;;;;;;;7.10;2.70;;;;;;;24.62;32.09;98401.95;106740;1277;22528;-78
2023/05/31 11:39:46;;;;;;;6.00;2.60;;;;;;;24.86;32.41;98399.32;106857;1269;24205;-78
2023/05/31 11:42:14;;;;;;;7.50;2.90;;;;;;;25.12;31.71;98400.47;106610;1277;23891;-78